Time;durP1;ratioP1;P1;durP2;ratioP2;P2;SDS_P1;SDS_P2;PMS_P1;PMS_P2;Temp;Humidity;BMP_temperature;BMP_pressure;BME280_temperature;BME280_humidity;BME280_pressure;Samples;Min_cycle;Max_cycle;Signal;HPM_P1;HPM_P2
2022/09/12 00:01:56;;;;;;;5.22;3.20;;;13.60;99.90;;;;;;4933953;29;20518;-85
2022/09/12 00:04:22;;;;;;;5.85;3.35;;;13.50;99.90;;;;;;4929487;29;20193;-86
2022/09/12 00:06:47;;;;;;;5.32;3.20;;;13.30;99.90;;;;;;4925372;29;20194;-90
2022/09/12 00:09:14;;;;;;;6.80;3.72;;;13.40;99.90;;;;;;4920843;29;20210;-91
2022/09/12 00:11:42;;;;;;;4.43;3.20;;;13.30;99.90;;;;;;4919313;29;20549;-86
2022/09/12 00:14:11;;;;;;;6.22;3.80;;;13.40;99.90;;;;;;4919662;29;20618;-86
2022/09/12 00:16:37;;;;;;;4.57;3.38;;;13.40;99.90;;;;;;4919617;29;20658;-85
2022/09/12 00:19:04;;;;;;;4.90;3.75;;;13.40;99.90;;;;;;4919918;29;20213;-86
2022/09/12 00:21:33;;;;;;;5.60;3.53;;;13.30;99.90;;;;;;4919628;29;20183;-86
2022/09/12 00:23:59;;;;;;;6.78;3.80;;;13.30;99.90;;;;;;4919646;29;20179;-86
2022/09/12 00:26:25;;;;;;;4.13;3.42;;;13.40;99.90;;;;;;4919663;29;20289;-94
2022/09/12 00:28:51;;;;;;;4.97;3.63;;;13.40;99.90;;;;;;4919967;29;20297;-89
2022/09/12 00:31:25;;;;;;;4.70;3.75;;;13.50;99.90;;;;;;4919467;29;20290;-92
2022/09/12 00:33:54;;;;;;;3.83;3.30;;;13.30;99.90;;;;;;4918936;29;20643;-89
2022/09/12 00:36:22;;;;;;;5.10;3.72;;;13.40;99.90;;;;;;4920413;29;20641;-88
2022/09/12 00:38:49;;;;;;;4.40;3.30;;;13.40;99.90;;;;;;4920345;29;20614;-92
2022/09/12 00:41:28;;;;;;;5.72;3.75;;;13.30;99.90;;;;;;4920407;29;20217;-92
2022/09/12 00:44:22;;;;;;;5.95;3.50;;;13.20;99.90;;;;;;4927234;29;20312;-91
2022/09/12 00:46:57;;;;;;;4.72;3.30;;;13.30;99.90;;;;;;4927839;29;20197;-91
2022/09/12 00:49:53;;;;;;;5.15;3.30;;;13.10;99.90;;;;;;4920302;29;20162;-91
2022/09/12 00:52:21;;;;;;;8.90;3.38;;;13.00;99.90;;;;;;4919131;29;20238;-93
2022/09/12 00:54:55;;;;;;;5.43;3.33;;;13.10;99.90;;;;;;4918881;29;20261;-93
2022/09/12 00:57:26;;;;;;;4.13;3.13;;;13.10;99.90;;;;;;4919081;29;20225;-89
2022/09/12 01:00:04;;;;;;;7.13;3.80;;;13.20;99.90;;;;;;4920267;29;20166;-88
2022/09/12 01:02:30;;;;;;;4.95;3.22;;;13.10;99.90;;;;;;4923147;29;20277;-86
2022/09/12 01:04:55;;;;;;;4.40;3.65;;;13.00;99.90;;;;;;4938880;29;20178;-89
2022/09/12 01:07:21;;;;;;;8.18;3.53;;;13.00;99.90;;;;;;4921445;29;20197;-92
2022/09/12 01:09:47;;;;;;;5.45;3.42;;;12.90;99.90;;;;;;4935489;29;20190;-89
2022/09/12 01:12:15;;;;;;;4.32;3.65;;;12.90;99.90;;;;;;4936615;29;20221;-89
2022/09/12 01:14:41;;;;;;;5.13;3.85;;;12.90;99.90;;;;;;4936222;29;20190;-95
2022/09/12 01:17:12;;;;;;;12.88;4.38;;;12.90;99.90;;;;;;4937817;29;20257;-92
2022/09/12 01:20:10;;;;;;;15.07;4.00;;;12.70;99.90;;;;;;4937066;29;20277;-89
2022/09/12 01:22:59;;;;;;;4.22;2.95;;;12.70;99.90;;;;;;4936266;29;20280;-90
2022/09/12 01:25:28;;;;;;;4.68;2.97;;;12.60;99.90;;;;;;4937352;29;20197;-91
2022/09/12 01:28:12;;;;;;;3.67;3.28;;;12.70;99.90;;;;;;4929236;29;20222;-92
2022/09/12 01:30:48;;;;;;;3.22;2.90;;;12.80;99.90;;;;;;4918640;29;20194;-93
2022/09/12 01:33:27;;;;;;;4.13;3.15;;;12.90;99.90;;;;;;4918538;29;20180;-92
2022/09/12 01:36:22;;;;;;;3.78;3.05;;;12.80;99.90;;;;;;4918523;29;20329;-94
2022/09/12 01:38:59;;;;;;;5.40;3.63;;;12.80;99.90;;;;;;4919546;29;20182;-91
2022/09/12 01:41:44;;;;;;;5.03;3.35;;;12.80;99.90;;;;;;4919172;29;20257;-92
2022/09/12 01:44:18;;;;;;;4.65;3.90;;;12.70;99.90;;;;;;4933794;29;20193;-93
2022/09/12 01:47:32;;;;;;;8.13;3.97;;;12.60;99.90;;;;;;4938371;29;20196;-91
2022/09/12 01:50:07;;;;;;;5.85;3.63;;;12.60;99.90;;;;;;4886275;29;20242;-91
2022/09/12 01:52:47;;;;;;;3.97;2.63;;;12.50;99.90;;;;;;4916612;29;20225;-85
2022/09/12 01:55:18;;;;;;;3.20;2.90;;;12.50;99.90;;;;;;4918233;29;20246;-85
2022/09/12 01:57:57;;;;;;;4.75;2.80;;;12.40;99.90;;;;;;4918467;29;20218;-87
2022/09/12 02:00:23;;;;;;;3.65;3.28;;;12.50;99.90;;;;;;4919423;29;20174;-92
2022/09/12 02:03:01;;;;;;;7.00;4.00;;;12.40;99.90;;;;;;4917732;29;20238;-87
2022/09/12 02:05:56;;;;;;;5.13;3.67;;;12.30;99.90;;;;;;4918420;29;20186;-85
2022/09/12 02:08:27;;;;;;;7.10;4.00;;;12.30;99.90;;;;;;4917173;29;20205;-93
2022/09/12 02:10:59;;;;;;;5.25;3.50;;;12.30;99.90;;;;;;4917583;29;20193;-95
2022/09/12 02:13:45;;;;;;;5.40;4.00;;;12.30;99.90;;;;;;4918867;29;20195;-90
2022/09/12 02:16:18;;;;;;;9.73;3.70;;;12.30;99.90;;;;;;4911890;29;20218;-94
2022/09/12 02:18:49;;;;;;;8.85;4.38;;;12.30;99.90;;;;;;4919050;29;20170;-90
2022/09/12 02:21:18;;;;;;;5.20;4.35;;;12.30;99.90;;;;;;4917801;29;20198;-93
2022/09/12 02:23:48;;;;;;;9.13;5.07;;;12.20;99.90;;;;;;4919154;29;20331;-95
2022/09/12 02:26:32;;;;;;;9.82;6.05;;;12.10;99.90;;;;;;4918609;29;20205;-95
2022/09/12 02:28:57;;;;;;;9.57;6.05;;;12.20;99.90;;;;;;4917763;29;20203;-90
2022/09/12 02:31:40;;;;;;;8.48;5.88;;;12.20;99.90;;;;;;4917632;29;20206;-90
2022/09/12 02:34:16;;;;;;;10.02;6.15;;;12.20;99.90;;;;;;4918285;29;20630;-94
2022/09/12 02:37:04;;;;;;;12.13;6.43;;;12.30;99.90;;;;;;4918772;29;20225;-93
2022/09/12 02:39:31;;;;;;;9.25;6.22;;;12.20;99.90;;;;;;4917804;29;20202;-95
2022/09/12 02:42:00;;;;;;;11.82;6.57;;;12.20;99.90;;;;;;4918124;29;20516;-91
2022/09/12 02:44:28;;;;;;;9.85;6.35;;;12.10;99.90;;;;;;4917237;29;20187;-93
2022/09/12 02:46:59;;;;;;;10.07;6.13;;;12.20;99.90;;;;;;4917253;29;20201;-95
2022/09/12 02:49:25;;;;;;;11.38;6.28;;;12.30;99.90;;;;;;5370497;23;20246;-93
2022/09/12 02:51:51;;;;;;;9.38;6.22;;;12.40;99.90;;;;;;4938633;28;20181;-95
2022/09/12 02:54:18;;;;;;;8.48;5.80;;;12.40;99.90;;;;;;4948480;29;20189;-95
2022/09/12 02:56:47;;;;;;;8.15;5.78;;;12.30;99.90;;;;;;4956632;28;20292;-89
2022/09/12 02:59:16;;;;;;;10.93;6.07;;;12.40;99.90;;;;;;4934407;29;20273;-96
2022/09/12 03:02:09;;;;;;;9.52;6.15;;;12.40;99.90;;;;;;4938024;29;20229;-94
2022/09/12 03:04:58;;;;;;;11.20;7.25;;;12.40;99.90;;;;;;4956043;29;20287;-95
2022/09/12 03:07:56;;;;;;;9.63;6.60;;;12.40;99.90;;;;;;4950707;28;20221;-92
2022/09/12 03:10:33;;;;;;;10.55;6.78;;;12.30;99.90;;;;;;4936840;29;20186;-90
2022/09/12 03:13:08;;;;;;;10.20;6.13;;;12.30;99.90;;;;;;4936420;29;20198;-93
2022/09/12 03:15:58;;;;;;;11.15;6.45;;;12.20;99.90;;;;;;4938165;29;20192;-96
2022/09/12 03:18:31;;;;;;;11.88;6.95;;;12.10;99.90;;;;;;4936966;29;20193;-90
2022/09/12 03:21:24;;;;;;;7.45;5.88;;;12.00;99.90;;;;;;4936826;29;20177;-88
2022/09/12 03:24:09;;;;;;;7.63;4.78;;;12.00;99.90;;;;;;4932789;28;20624;-87
2022/09/12 03:26:39;;;;;;;6.03;4.72;;;12.00;99.90;;;;;;4955030;29;20325;-84
2022/09/12 03:29:06;;;;;;;9.45;5.53;;;12.00;99.90;;;;;;4955777;28;20185;-86
2022/09/12 03:31:32;;;;;;;11.98;5.60;;;12.00;99.90;;;;;;4955999;28;20193;-91
2022/09/12 03:34:01;;;;;;;9.27;5.60;;;11.90;99.90;;;;;;4955341;29;20177;-86
2022/09/12 03:36:28;;;;;;;9.27;5.82;;;11.80;99.90;;;;;;4955498;28;20291;-88
2022/09/12 03:38:54;;;;;;;8.57;5.78;;;11.80;99.90;;;;;;4957501;28;20246;-85
2022/09/12 03:41:21;;;;;;;7.57;5.82;;;11.70;99.90;;;;;;4959188;28;20244;-87
2022/09/12 03:43:47;;;;;;;8.85;6.20;;;11.70;99.90;;;;;;4957684;28;20527;-89
2022/09/12 03:46:13;;;;;;;8.35;5.88;;;11.80;99.90;;;;;;4959660;28;20184;-86
2022/09/12 03:48:40;;;;;;;9.13;6.85;;;11.70;99.90;;;;;;4945542;28;20242;-86
2022/09/12 03:51:09;;;;;;;8.32;4.97;;;11.70;99.90;;;;;;4928248;29;20236;-85
2022/09/12 03:53:35;;;;;;;9.13;6.15;;;11.70;99.90;;;;;;4941762;28;20186;-86
2022/09/12 03:56:06;;;;;;;10.02;6.68;;;11.80;99.90;;;;;;4940534;29;20268;-85
2022/09/12 03:58:34;;;;;;;13.77;7.13;;;11.90;99.90;;;;;;4940269;29;20272;-88
2022/09/12 04:01:11;;;;;;;13.70;7.82;;;11.90;99.90;;;;;;4939070;29;20189;-85
2022/09/12 04:03:37;;;;;;;12.98;7.20;;;11.90;99.90;;;;;;4956266;29;20185;-86
2022/09/12 04:06:03;;;;;;;14.23;8.05;;;11.80;99.90;;;;;;4941050;29;20193;-86
2022/09/12 04:08:29;;;;;;;13.10;7.25;;;11.80;99.90;;;;;;4952253;28;20204;-86
2022/09/12 04:11:02;;;;;;;11.93;8.00;;;11.80;99.90;;;;;;4948577;29;20236;-85
2022/09/12 04:13:28;;;;;;;14.75;8.35;;;11.70;99.90;;;;;;4943715;29;20216;-86
2022/09/12 04:15:58;;;;;;;10.43;7.47;;;11.70;99.90;;;;;;4958501;28;20295;-85
2022/09/12 04:18:24;;;;;;;14.40;8.30;;;11.80;99.90;;;;;;4954161;28;20185;-87
2022/09/12 04:20:50;;;;;;;12.55;8.50;;;11.80;99.90;;;;;;4940269;29;20580;-86
2022/09/12 04:23:15;;;;;;;15.48;8.18;;;11.80;99.90;;;;;;4956863;29;20590;-84
2022/09/12 04:25:41;;;;;;;13.68;8.55;;;11.80;99.90;;;;;;4959023;29;20675;-87
2022/09/12 04:28:07;;;;;;;12.10;7.80;;;11.90;99.90;;;;;;4957896;28;20189;-91
2022/09/12 04:30:33;;;;;;;11.90;8.05;;;11.90;99.90;;;;;;4959200;28;20174;-88
2022/09/12 04:32:59;;;;;;;11.30;7.97;;;11.80;99.90;;;;;;4957725;28;20189;-85
2022/09/12 04:35:26;;;;;;;14.10;8.43;;;11.90;99.90;;;;;;4957835;28;20228;-90
2022/09/12 04:37:52;;;;;;;11.38;8.27;;;11.80;99.90;;;;;;4958300;28;20201;-86
2022/09/12 04:40:18;;;;;;;10.40;7.60;;;11.80;99.90;;;;;;4941473;29;20189;-86
2022/09/12 04:42:44;;;;;;;12.40;8.45;;;11.70;99.90;;;;;;4944697;28;20274;-86
2022/09/12 04:45:11;;;;;;;10.93;7.95;;;11.70;99.90;;;;;;4953459;29;20185;-86
2022/09/12 04:47:37;;;;;;;12.02;7.35;;;11.70;99.90;;;;;;4943949;28;20190;-90
2022/09/12 04:50:04;;;;;;;13.02;9.02;;;11.70;99.90;;;;;;4937525;28;20333;-85
2022/09/12 04:52:29;;;;;;;10.35;7.43;;;11.70;99.90;;;;;;4937986;28;20271;-88
2022/09/12 04:54:55;;;;;;;12.77;7.68;;;11.60;99.90;;;;;;4937984;29;20677;-87
2022/09/12 04:57:21;;;;;;;10.82;7.80;;;11.60;99.90;;;;;;4937999;29;20213;-85
2022/09/12 04:59:46;;;;;;;10.13;7.72;;;11.70;99.90;;;;;;4939272;29;20201;-87
2022/09/12 05:02:12;;;;;;;11.00;7.22;;;11.70;99.90;;;;;;4938166;29;20178;-91
2022/09/12 05:04:38;;;;;;;9.63;7.18;;;11.70;99.90;;;;;;4938782;29;20196;-86
2022/09/12 05:07:04;;;;;;;8.05;6.05;;;11.70;99.90;;;;;;4939134;29;20193;-86
2022/09/12 05:09:30;;;;;;;9.63;7.13;;;11.70;99.90;;;;;;4938124;29;20640;-85
2022/09/12 05:11:58;;;;;;;8.32;6.50;;;11.80;99.90;;;;;;4937816;29;20241;-85
2022/09/12 05:14:23;;;;;;;9.00;6.05;;;11.70;99.90;;;;;;4956611;29;20559;-85
2022/09/12 05:16:49;;;;;;;9.95;6.82;;;11.60;99.90;;;;;;4957035;29;20213;-86
2022/09/12 05:19:15;;;;;;;10.18;5.95;;;11.60;99.90;;;;;;4944956;29;20190;-85
2022/09/12 05:21:40;;;;;;;8.68;6.82;;;11.60;99.90;;;;;;4939258;29;20223;-86
2022/09/12 05:24:06;;;;;;;10.73;6.50;;;11.60;99.90;;;;;;4937308;29;20178;-86
2022/09/12 05:26:32;;;;;;;10.65;6.32;;;11.50;99.90;;;;;;4938965;29;20170;-88
2022/09/12 05:28:57;;;;;;;10.50;6.47;;;11.50;99.90;;;;;;4937474;29;20576;-87
2022/09/12 05:31:25;;;;;;;8.77;5.70;;;11.40;99.90;;;;;;4937734;29;20178;-86
2022/09/12 05:33:53;;;;;;;11.48;6.13;;;11.50;99.90;;;;;;4939072;29;20522;-86
2022/09/12 05:36:29;;;;;;;9.55;6.07;;;11.50;99.90;;;;;;4956179;28;20217;-86
2022/09/12 05:38:55;;;;;;;8.10;6.05;;;11.50;99.90;;;;;;4956568;29;20195;-85
2022/09/12 05:41:26;;;;;;;10.57;6.28;;;11.60;99.90;;;;;;4957007;28;20554;-85
2022/09/12 05:43:55;;;;;;;11.13;6.88;;;11.60;99.90;;;;;;4957108;29;20180;-86
2022/09/12 05:46:24;;;;;;;10.95;6.28;;;11.70;99.90;;;;;;4957623;28;20205;-86
2022/09/12 05:48:53;;;;;;;9.13;6.35;;;11.80;99.90;;;;;;4951566;28;20724;-86
2022/09/12 05:51:25;;;;;;;7.60;5.97;;;11.90;99.90;;;;;;4941270;29;20637;-86
2022/09/12 05:53:57;;;;;;;9.93;6.05;;;11.90;99.90;;;;;;4938263;29;20186;-86
2022/09/12 05:56:28;;;;;;;8.40;5.65;;;12.00;99.90;;;;;;4937823;29;20225;-90
2022/09/12 05:58:56;;;;;;;7.45;6.00;;;12.10;99.90;;;;;;4937962;29;20181;-88
2022/09/12 06:01:22;;;;;;;10.60;6.30;;;12.10;99.90;;;;;;4936769;29;20181;-88
2022/09/12 06:03:52;;;;;;;9.50;6.15;;;12.10;99.90;;;;;;4937542;29;20185;-90
2022/09/12 06:06:20;;;;;;;10.45;6.80;;;12.10;99.90;;;;;;4938899;28;20614;-91
2022/09/12 06:08:48;;;;;;;7.30;5.97;;;12.10;99.90;;;;;;4938016;29;20209;-90
2022/09/12 06:11:19;;;;;;;10.50;6.32;;;12.10;99.90;;;;;;4937459;29;20265;-91
2022/09/12 06:13:46;;;;;;;8.27;5.88;;;12.10;99.90;;;;;;4937270;29;20174;-92
2022/09/12 06:16:15;;;;;;;7.57;5.10;;;12.10;99.90;;;;;;4936795;29;20284;-95
2022/09/12 06:18:45;;;;;;;11.30;6.93;;;12.10;99.90;;;;;;4937258;29;20189;-91
2022/09/12 06:21:11;;;;;;;9.85;6.63;;;12.20;99.90;;;;;;4938962;29;20249;-96
2022/09/12 06:23:39;;;;;;;15.05;8.68;;;12.30;99.90;;;;;;4937928;29;20181;-96
2022/09/12 06:26:06;;;;;;;13.25;8.07;;;12.40;99.90;;;;;;4937724;28;20180;-96
2022/09/12 06:28:35;;;;;;;12.77;8.00;;;12.50;99.90;;;;;;4939490;29;20609;-96
2022/09/12 06:31:12;;;;;;;12.13;7.47;;;12.60;99.90;;;;;;4937968;29;20200;-96
2022/09/12 06:33:46;;;;;;;16.13;8.65;;;12.60;99.90;;;;;;4942670;29;20210;-96
2022/09/12 06:36:21;;;;;;;9.30;7.25;;;12.70;99.90;;;;;;4938761;29;20214;-95
2022/09/12 06:38:50;;;;;;;11.15;8.18;;;12.80;99.90;;;;;;4938299;29;20180;-96
2022/09/12 06:41:16;;;;;;;12.48;7.43;;;12.90;99.90;;;;;;4938801;29;20189;-96
2022/09/12 06:43:45;;;;;;;14.30;8.80;;;12.90;99.90;;;;;;4946514;29;20620;-96
2022/09/12 06:46:11;;;;;;;12.98;8.20;;;13.00;99.90;;;;;;4951881;28;20193;-95
2022/09/12 06:48:38;;;;;;;11.00;7.35;;;13.00;99.90;;;;;;4939744;29;20233;-96
2022/09/12 06:51:10;;;;;;;15.18;8.00;;;13.10;99.90;;;;;;4942396;29;20182;-96
2022/09/12 06:53:47;;;;;;;12.60;8.70;;;13.20;99.90;;;;;;4942442;28;20177;-96
2022/09/12 06:56:15;;;;;;;14.07;9.35;;;13.30;99.90;;;;;;4940407;28;20252;-96
2022/09/12 06:58:42;;;;;;;11.90;8.25;;;13.40;99.90;;;;;;4948932;28;20174;-87
2022/09/12 07:01:14;;;;;;;13.10;9.30;;;13.50;99.90;;;;;;4942864;28;20185;-96
2022/09/12 07:03:42;;;;;;;11.75;8.00;;;13.60;99.90;;;;;;4946229;29;20276;-95
2022/09/12 07:06:13;;;;;;;14.80;9.38;;;13.70;99.90;;;;;;4949841;28;20680;-95
2022/09/12 07:08:39;;;;;;;16.27;8.90;;;13.80;99.90;;;;;;4945071;28;20209;-95
2022/09/12 07:11:14;;;;;;;13.07;7.90;;;13.80;99.90;;;;;;4938674;29;20266;-96
2022/09/12 07:13:42;;;;;;;12.77;8.65;;;13.90;99.90;;;;;;4937772;29;20169;-93
2022/09/12 07:16:10;;;;;;;12.57;8.38;;;14.00;99.90;;;;;;4943577;29;20201;-88
2022/09/12 07:18:39;;;;;;;13.38;9.07;;;14.10;99.90;;;;;;4947641;29;20185;-91
2022/09/12 07:21:08;;;;;;;13.85;8.80;;;14.30;99.90;;;;;;4963308;28;20181;-96
2022/09/12 07:23:36;;;;;;;15.48;9.70;;;14.30;99.90;;;;;;4962006;28;20277;-93
2022/09/12 07:26:01;;;;;;;11.77;8.27;;;14.40;99.90;;;;;;4959689;28;20172;-90
2022/09/12 07:28:30;;;;;;;16.20;9.00;;;14.50;99.90;;;;;;4959177;28;20282;-87
2022/09/12 07:30:57;;;;;;;13.55;8.95;;;14.60;99.90;;;;;;4961734;28;20177;-88
2022/09/12 07:33:27;;;;;;;12.38;8.88;;;14.70;99.90;;;;;;4960937;28;20604;-87
2022/09/12 07:35:53;;;;;;;17.00;8.82;;;14.80;99.90;;;;;;4958132;28;20181;-91
2022/09/12 07:38:19;;;;;;;11.00;8.38;;;14.90;99.90;;;;;;4958872;28;20181;-88
2022/09/12 07:40:45;;;;;;;13.70;8.48;;;15.00;99.90;;;;;;4956690;29;20267;-90
2022/09/12 07:43:11;;;;;;;10.70;7.50;;;15.10;99.90;;;;;;4958297;28;20679;-87
2022/09/12 07:45:40;;;;;;;16.63;9.93;;;15.20;99.90;;;;;;4956288;28;20177;-90
2022/09/12 07:48:07;;;;;;;14.20;8.15;;;15.30;99.90;;;;;;4955342;29;20269;-87
2022/09/12 07:50:33;;;;;;;13.43;8.38;;;15.40;99.90;;;;;;4935886;29;20225;-88
2022/09/12 07:52:59;;;;;;;10.27;7.60;;;15.50;99.90;;;;;;4937029;28;20186;-87
2022/09/12 07:55:25;;;;;;;14.32;8.32;;;15.50;99.90;;;;;;4936722;28;20178;-85
2022/09/12 07:57:51;;;;;;;10.32;7.30;;;15.60;99.90;;;;;;4937610;29;20253;-90
2022/09/12 08:00:17;;;;;;;12.27;8.75;;;15.70;99.90;;;;;;4937831;29;20517;-91
2022/09/12 08:02:44;;;;;;;13.20;8.63;;;15.80;99.90;;;;;;4936219;29;20201;-86
2022/09/12 08:05:10;;;;;;;10.43;8.48;;;15.90;99.90;;;;;;4935268;29;21035;-91
2022/09/12 08:07:35;;;;;;;12.82;8.05;;;16.00;99.90;;;;;;4937066;29;20182;-91
2022/09/12 08:10:01;;;;;;;14.02;8.55;;;16.10;99.90;;;;;;4936216;28;20182;-94
2022/09/12 08:12:31;;;;;;;13.23;8.93;;;16.20;99.90;;;;;;4938090;28;20633;-96
2022/09/12 08:14:57;;;;;;;12.98;8.60;;;16.30;99.90;;;;;;4938978;29;20610;-93
2022/09/12 08:17:22;;;;;;;13.07;8.27;;;16.40;99.90;;;;;;4936216;28;20553;-96
2022/09/12 08:19:48;;;;;;;14.25;9.07;;;16.50;99.90;;;;;;4937098;29;20189;-92
2022/09/12 08:22:14;;;;;;;11.20;7.68;;;16.50;99.90;;;;;;4938705;29;20182;-94
2022/09/12 08:24:40;;;;;;;11.43;8.60;;;16.60;99.90;;;;;;4939986;29;20189;-93
2022/09/12 08:27:07;;;;;;;10.20;7.28;;;16.70;99.90;;;;;;4941654;29;20525;-87
2022/09/12 08:29:32;;;;;;;9.35;7.15;;;16.80;99.90;;;;;;4947394;29;20171;-91
2022/09/12 08:31:58;;;;;;;12.70;7.97;;;16.80;99.90;;;;;;4946021;28;20810;-86
2022/09/12 08:34:25;;;;;;;11.15;7.30;;;16.90;99.90;;;;;;4942317;29;20605;-91
2022/09/12 08:36:53;;;;;;;10.65;8.05;;;17.10;99.90;;;;;;4939191;29;20316;-95
2022/09/12 08:39:20;;;;;;;13.00;7.97;;;17.10;99.90;;;;;;4939313;29;20668;-91
2022/09/12 08:41:47;;;;;;;14.73;8.70;;;17.10;99.90;;;;;;4940777;29;20181;-88
2022/09/12 08:44:33;;;;;;;11.63;8.30;;;17.20;99.90;;;;;;4945082;29;20178;-96
2022/09/12 08:47:08;;;;;;;14.27;9.35;;;17.30;99.90;;;;;;4952302;29;20190;-95
2022/09/12 08:49:41;;;;;;;13.65;8.35;;;17.40;99.90;;;;;;4948557;29;20236;-96
2022/09/12 08:52:18;;;;;;;11.65;7.35;;;17.50;99.90;;;;;;4948034;29;20169;-96
2022/09/12 08:54:49;;;;;;;12.27;8.63;;;17.60;99.90;;;;;;4944361;29;20185;-92
2022/09/12 08:57:16;;;;;;;12.98;7.57;;;17.60;99.90;;;;;;4947146;29;20214;-88
2022/09/12 08:59:44;;;;;;;12.63;7.78;;;17.70;99.90;;;;;;4947104;29;20183;-96
2022/09/12 09:02:47;;;;;;;12.77;7.97;;;17.70;99.90;;;;;;4947006;29;20174;-94
2022/09/12 09:05:40;;;;;;;9.65;7.05;;;17.70;99.90;;;;;;4944537;29;20221;-96
2022/09/12 09:08:15;;;;;;;10.63;7.05;;;17.80;99.90;;;;;;4945008;29;20182;-95
2022/09/12 09:10:49;;;;;;;11.32;7.97;;;17.90;99.90;;;;;;4945529;29;20219;-94
2022/09/12 09:16:41;;;;;;;7.78;5.95;;;18.00;99.90;;;;;;4952374;29;20732;-96
2022/09/12 09:19:41;;;;;;;8.98;6.40;;;18.10;99.90;;;;;;4941630;29;20275;-96
2022/09/12 09:22:13;;;;;;;8.95;6.28;;;18.20;99.90;;;;;;4932405;29;20264;-95
2022/09/12 09:24:58;;;;;;;10.68;6.70;;;18.20;99.90;;;;;;4939658;28;20177;-96
2022/09/12 09:27:33;;;;;;;8.23;6.45;;;18.30;99.90;;;;;;4939892;28;20651;-94
2022/09/12 09:30:00;;;;;;;9.52;6.70;;;18.40;99.90;;;;;;4938708;29;20181;-94
2022/09/12 09:32:37;;;;;;;6.65;5.30;;;18.50;99.90;;;;;;4939755;28;20174;-93
2022/09/12 09:35:21;;;;;;;9.43;5.88;;;18.60;99.90;;;;;;4938748;29;20326;-94
2022/09/12 09:37:59;;;;;;;9.98;6.75;;;18.70;99.90;;;;;;4940836;29;20270;-94
2022/09/12 09:40:52;;;;;;;8.45;6.10;;;18.80;99.90;;;;;;4942689;29;20169;-92
2022/09/12 09:43:23;;;;;;;8.35;6.15;;;18.80;99.90;;;;;;4939466;29;20198;-90
2022/09/12 09:45:51;;;;;;;12.93;5.68;;;18.90;99.90;;;;;;4939692;28;20170;-94
2022/09/12 09:48:37;;;;;;;7.35;6.10;;;19.10;99.90;;;;;;4941404;29;20166;-93
2022/09/12 09:51:05;;;;;;;8.32;6.00;;;19.20;99.90;;;;;;4939569;29;20284;-90
2022/09/12 09:54:00;;;;;;;12.05;7.18;;;19.20;99.90;;;;;;4939825;29;20182;-85
2022/09/12 09:56:44;;;;;;;9.93;6.32;;;19.30;99.90;;;;;;4938143;29;20676;-86
2022/09/12 09:59:32;;;;;;;9.23;5.38;;;19.30;99.90;;;;;;4938482;28;20190;-84
2022/09/12 10:02:13;;;;;;;7.78;5.15;;;19.20;99.90;;;;;;4937415;28;20201;-87
2022/09/12 10:04:54;;;;;;;8.88;5.28;;;19.00;99.90;;;;;;4938031;29;20669;-86
2022/09/12 10:07:21;;;;;;;6.53;4.28;;;18.90;99.90;;;;;;4938108;29;20177;-86
2022/09/12 10:10:23;;;;;;;7.95;4.28;;;19.00;99.90;;;;;;4936944;28;20185;-85
2022/09/12 10:13:09;;;;;;;8.38;5.00;;;19.00;99.90;;;;;;4897901;29;20183;-86
2022/09/12 10:15:36;;;;;;;9.05;5.40;;;19.00;99.90;;;;;;4933241;29;20529;-87
2022/09/12 10:18:03;;;;;;;7.50;4.00;;;18.90;99.90;;;;;;4936575;29;20213;-85
2022/09/12 10:20:44;;;;;;;6.35;3.78;;;18.90;99.90;;;;;;4936412;28;20201;-85
2022/09/12 10:23:36;;;;;;;7.38;4.47;;;18.80;99.90;;;;;;4937669;29;20178;-86
2022/09/12 10:26:08;;;;;;;8.35;4.40;;;18.80;99.90;;;;;;4936372;29;20174;-85
2022/09/12 10:28:44;;;;;;;4.68;4.00;;;18.80;99.90;;;;;;4936672;29;20178;-85
2022/09/12 10:31:14;;;;;;;4.88;3.80;;;18.90;99.90;;;;;;4937747;29;20208;-86
2022/09/12 10:33:51;;;;;;;5.85;3.90;;;19.10;99.90;;;;;;4936252;29;20610;-85
2022/09/12 10:36:18;;;;;;;4.55;3.50;;;19.10;99.90;;;;;;4935851;28;20644;-85
2022/09/12 10:38:59;;;;;;;6.45;3.40;;;19.00;99.90;;;;;;4936309;29;20626;-85
2022/09/12 10:41:26;;;;;;;7.63;3.65;;;19.10;99.90;;;;;;4936335;29;20652;-85
2022/09/12 10:43:51;;;;;;;5.10;3.70;;;19.10;99.90;;;;;;4936124;29;20190;-88
2022/09/12 10:46:18;;;;;;;4.78;3.22;;;19.00;99.90;;;;;;4937505;29;20178;-85
2022/09/12 10:48:48;;;;;;;7.20;3.38;;;19.00;99.90;;;;;;4935904;29;20185;-90
2022/09/12 10:51:23;;;;;;;5.72;3.22;;;19.00;99.90;;;;;;4937388;29;20186;-86
2022/09/12 10:53:55;;;;;;;5.35;3.80;;;19.00;99.90;;;;;;4936425;29;20186;-90
2022/09/12 10:56:34;;;;;;;3.78;2.67;;;19.20;99.90;;;;;;4937359;29;20198;-85
2022/09/12 10:59:24;;;;;;;4.38;2.97;;;19.20;99.90;;;;;;4936002;28;20182;-85
2022/09/12 11:02:20;;;;;;;7.32;3.13;;;19.30;99.90;;;;;;4936173;29;20185;-89
2022/09/12 11:04:59;;;;;;;4.53;2.83;;;19.40;99.90;;;;;;4940229;29;20193;-84
2022/09/12 11:07:34;;;;;;;4.00;2.47;;;19.60;99.90;;;;;;4935326;29;20196;-84
2022/09/12 11:10:37;;;;;;;3.60;2.38;;;19.90;99.90;;;;;;4937124;29;20189;-85
2022/09/12 11:13:40;;;;;;;3.90;2.17;;;20.10;99.90;;;;;;4935881;29;20263;-89
2022/09/12 11:16:24;;;;;;;3.05;2.22;;;20.30;99.90;;;;;;4941502;29;20714;-88
2022/09/12 11:19:08;;;;;;;3.88;2.55;;;20.40;99.90;;;;;;4948399;29;20208;-90
2022/09/12 11:22:10;;;;;;;4.55;2.85;;;20.50;99.90;;;;;;4934805;29;20196;-84
2022/09/12 11:24:57;;;;;;;5.85;3.22;;;20.60;99.90;;;;;;4935343;29;20181;-83
2022/09/12 11:27:54;;;;;;;5.70;2.60;;;20.50;99.90;;;;;;4935599;29;20181;-90
2022/09/12 11:30:19;;;;;;;9.38;2.70;;;20.70;99.90;;;;;;4936167;29;20174;-86
2022/09/12 11:33:04;;;;;;;4.25;2.10;;;20.70;99.90;;;;;;4936681;29;20329;-85
2022/09/12 11:35:39;;;;;;;6.85;2.13;;;20.80;99.90;;;;;;4936675;29;20188;-85
2022/09/12 11:38:17;;;;;;;6.57;2.60;;;20.90;99.90;;;;;;4936374;29;20228;-84
2022/09/12 11:40:55;;;;;;;3.30;2.45;;;20.90;98.80;;;;;;4935520;29;20177;-87
2022/09/12 11:43:36;;;;;;;3.40;2.53;;;21.00;99.90;;;;;;4934854;28;20190;-84
2022/09/12 11:46:12;;;;;;;4.32;2.28;;;21.10;98.90;;;;;;4936025;29;20189;-85
2022/09/12 11:48:59;;;;;;;6.72;2.20;;;21.10;99.10;;;;;;4935505;29;20241;-87
2022/09/12 11:51:40;;;;;;;4.45;2.35;;;21.10;99.10;;;;;;4935564;29;20190;-84
2022/09/12 11:54:26;;;;;;;3.08;2.30;;;21.10;97.90;;;;;;4936622;29;20169;-84
2022/09/12 11:57:10;;;;;;;3.70;1.83;;;21.20;99.10;;;;;;4924943;29;20234;-85
2022/09/12 11:59:59;;;;;;;2.85;1.60;;;21.30;99.70;;;;;;4938580;28;20182;-85
2022/09/12 12:03:07;;;;;;;2.90;1.90;;;21.40;98.40;;;;;;4938986;29;20182;-84
2022/09/12 12:06:03;;;;;;;2.90;2.00;;;21.60;98.80;;;;;;4899389;29;20187;-87
2022/09/12 12:08:31;;;;;;;3.35;1.98;;;21.60;97.70;;;;;;4884408;29;20207;-85
2022/09/12 12:10:59;;;;;;;5.85;2.97;;;21.60;97.70;;;;;;4922446;29;20194;-84
2022/09/12 12:13:52;;;;;;;3.08;2.13;;;21.60;97.00;;;;;;4938769;29;20676;-84
2022/09/12 12:16:30;;;;;;;3.17;1.88;;;21.60;97.20;;;;;;4939766;29;20233;-88
2022/09/12 12:19:01;;;;;;;2.38;1.70;;;21.70;94.60;;;;;;4939907;29;20174;-85
2022/09/12 12:21:38;;;;;;;3.47;1.80;;;21.70;95.60;;;;;;4938353;29;20186;-84
2022/09/12 12:24:07;;;;;;;2.70;1.70;;;21.80;96.90;;;;;;4944344;29;20181;-85
2022/09/12 12:26:41;;;;;;;3.13;1.70;;;21.90;97.40;;;;;;4957750;29;20181;-87
2022/09/12 12:29:16;;;;;;;3.35;1.98;;;21.90;96.80;;;;;;4952401;29;20225;-83
2022/09/12 12:32:03;;;;;;;2.25;1.65;;;22.10;97.30;;;;;;4939571;29;20185;-84
2022/09/12 12:34:33;;;;;;;6.15;1.80;;;22.10;96.50;;;;;;4937821;29;20205;-83
2022/09/12 12:37:19;;;;;;;2.42;1.75;;;22.10;96.20;;;;;;4938250;29;20304;-85
2022/09/12 12:39:52;;;;;;;3.58;1.55;;;22.10;96.40;;;;;;4939356;29;20183;-85
2022/09/12 12:42:33;;;;;;;4.10;1.63;;;22.10;94.80;;;;;;4939497;29;20245;-88
2022/09/12 12:45:07;;;;;;;2.63;1.50;;;22.00;95.60;;;;;;4939361;29;20177;-87
2022/09/12 12:47:39;;;;;;;2.00;1.30;;;22.10;96.20;;;;;;4938229;29;20173;-88
2022/09/12 12:50:10;;;;;;;3.45;1.75;;;22.00;96.90;;;;;;4938018;29;20325;-84
2022/09/12 12:53:15;;;;;;;2.63;1.60;;;22.00;96.20;;;;;;4940103;29;20252;-83
2022/09/12 12:55:41;;;;;;;2.38;1.40;;;21.90;95.70;;;;;;4933856;29;20648;-84
2022/09/12 12:58:25;;;;;;;1.98;1.50;;;21.90;96.10;;;;;;4938004;29;20217;-84
2022/09/12 13:01:19;;;;;;;3.78;1.70;;;21.90;96.80;;;;;;4939106;28;20201;-83
2022/09/12 13:03:52;;;;;;;3.28;1.90;;;21.90;96.00;;;;;;4938131;29;20185;-84
2022/09/12 13:06:34;;;;;;;2.83;1.95;;;21.90;96.10;;;;;;4938800;28;20190;-83
2022/09/12 13:09:23;;;;;;;2.38;1.67;;;21.80;96.80;;;;;;4939506;29;20213;-84
2022/09/12 13:12:06;;;;;;;5.00;1.80;;;21.80;96.40;;;;;;4937949;28;20181;-83
2022/09/12 13:14:35;;;;;;;18.05;2.47;;;21.80;96.00;;;;;;4938551;29;20193;-80
2022/09/12 13:17:05;;;;;;;2.40;1.90;;;21.70;96.30;;;;;;4938738;29;20253;-81
2022/09/12 13:19:35;;;;;;;2.00;1.40;;;21.70;97.10;;;;;;4938242;29;20570;-81